Time;durP1;ratioP1;P1;durP2;ratioP2;P2;SDS_P1;SDS_P2;PMS_P1;PMS_P2;Temp;Humidity;BMP_temperature;BMP_pressure;BME280_temperature;BME280_humidity;BME280_pressure;Samples;Min_cycle;Max_cycle;Signal;HPM_P1;HPM_P2
2021/04/05 00:01:11;;;;;;;48.65;24.40;;;;;;;4.99;88.91;101139.25;4984922;28;20042;-77
2021/04/05 00:03:37;;;;;;;62.55;24.50;;;;;;;5.34;88.90;101182.66;4986031;28;20026;-76
2021/04/05 00:06:02;;;;;;;58.08;24.33;;;;;;;5.34;90.06;101186.13;4966222;28;20138;-77
2021/04/05 00:08:28;;;;;;;55.72;24.88;;;;;;;5.17;89.52;101158.25;4984024;28;20061;-77
2021/04/05 00:10:55;;;;;;;68.10;25.77;;;;;;;4.82;89.76;101099.94;4987993;28;20117;-77
2021/04/05 00:13:27;;;;;;;54.55;23.65;;;;;;;5.36;90.07;101178.94;4983253;28;20034;-77
2021/04/05 00:15:53;;;;;;;63.97;24.65;;;;;;;5.38;90.27;101167.41;4985118;28;20401;-78
2021/04/05 00:18:22;;;;;;;58.17;24.00;;;;;;;5.40;90.85;101168.97;4983645;28;20042;-77
2021/04/05 00:20:59;;;;;;;56.33;25.15;;;;;;;5.28;90.80;101138.09;4987941;28;20033;-77
2021/04/05 00:23:24;;;;;;;59.53;24.33;;;;;;;5.45;91.04;101158.03;4989718;28;20026;-77
2021/04/05 00:25:50;;;;;;;58.10;23.83;;;;;;;5.50;90.40;101169.16;4980010;28;20030;-77
2021/04/05 00:28:15;;;;;;;51.63;22.75;;;;;;;5.53;90.65;101163.63;4973186;28;20074;-77
2021/04/05 00:30:42;;;;;;;58.83;22.58;;;;;;;5.57;90.74;101153.66;4983004;28;20695;-77
2021/04/05 00:33:08;;;;;;;59.00;24.77;;;;;;;5.38;90.44;101110.00;4985481;28;20039;-81
2021/04/05 00:35:36;;;;;;;59.55;22.63;;;;;;;5.65;90.37;101144.19;4985728;28;20034;-77
2021/04/05 00:38:05;;;;;;;57.03;23.23;;;;;;;5.66;90.58;101139.72;4986179;28;20118;-77
2021/04/05 00:40:43;;;;;;;69.35;22.02;;;;;;;5.74;91.18;101147.09;4981012;28;20062;-77
2021/04/05 00:43:10;;;;;;;;;;;;;;;5.74;90.65;101134.72;4982510;28;20508;-77
2021/04/05 00:45:36;;;;;;;55.60;20.83;;;;;;;5.76;91.11;101139.91;4983448;28;19961;-77
2021/04/05 00:48:03;;;;;;;59.38;22.02;;;;;;;5.74;91.27;101134.72;4989232;28;20045;-77
2021/04/05 00:51:07;;;;;;;72.95;22.95;;;;;;;5.69;91.06;101113.03;4980278;28;20026;-78
2021/04/05 00:53:35;;;;;;;68.93;21.42;;;;;;;5.60;91.60;101093.38;4969605;28;20137;-78
2021/04/05 00:56:01;;;;;;;57.38;22.27;;;;;;;5.83;91.60;101120.78;4981045;28;20080;-78
2021/04/05 00:58:28;;;;;;;59.92;21.70;;;;;;;5.86;91.86;101118.88;4975494;28;20051;-78
2021/04/05 01:00:58;;;;;;;57.08;21.40;;;;;;;5.90;92.01;101121.16;4977592;28;20034;-77
2021/04/05 01:03:25;;;;;;;60.28;21.90;;;;;;;5.96;91.22;101109.25;4985020;28;20026;-78
2021/04/05 01:05:53;;;;;;;62.85;20.33;;;;;;;6.04;91.16;101098.94;4979183;28;20126;-77
2021/04/05 01:08:19;;;;;;;56.95;21.70;;;;;;;5.88;91.16;101070.09;4988884;28;20045;-77
2021/04/05 01:10:46;;;;;;;55.92;20.17;;;;;;;6.20;91.23;101097.78;4969184;28;20651;-77
2021/04/05 01:13:12;;;;;;;58.65;19.60;;;;;;;6.29;90.43;101099.72;4955583;28;20039;-77
2021/04/05 01:15:38;;;;;;;58.10;20.60;;;;;;;6.34;91.04;101096.72;4962453;28;20105;-77
2021/04/05 01:18:05;;;;;;;54.35;19.55;;;;;;;6.15;90.46;101044.31;4971216;28;20070;-77
2021/04/05 01:20:31;;;;;;;61.20;19.60;;;;;;;6.51;90.36;101076.84;4968678;28;20105;-77
2021/04/05 01:22:58;;;;;;;59.25;19.90;;;;;;;6.55;89.82;101070.34;4987639;28;20026;-77
2021/04/05 01:25:24;;;;;;;57.22;18.77;;;;;;;6.60;89.70;101073.44;4984947;28;20030;-77
2021/04/05 01:27:52;;;;;;;47.90;19.00;;;;;;;6.54;89.71;101031.53;4988220;28;20046;-76
2021/04/05 01:30:30;;;;;;;56.65;18.98;;;;;;;6.65;89.93;101036.81;4967400;28;20030;-76
2021/04/05 01:33:09;;;;;;;58.85;17.92;;;;;;;6.70;89.53;101032.00;4960225;28;20528;-77
2021/04/05 01:35:44;;;;;;;60.45;18.58;;;;;;;6.84;89.43;101036.16;4966600;28;20057;-77
2021/04/05 01:38:13;;;;;;;51.85;17.33;;;;;;;6.92;88.96;101029.41;4965194;28;20037;-77
2021/04/05 01:40:42;;;;;;;45.95;14.63;;;;;;;7.02;88.28;101023.22;4980037;28;20034;-77
2021/04/05 01:43:09;;;;;;;41.50;14.57;;;;;;;7.04;87.46;101029.25;4976689;28;20066;-77
2021/04/05 01:45:35;;;;;;;35.40;13.68;;;;;;;6.97;86.86;101025.41;4952283;28;20044;-77
2021/04/05 01:48:00;;;;;;;36.78;13.85;;;;;;;6.68;86.32;100970.28;4995061;28;20030;-77
2021/04/05 01:50:26;;;;;;;36.25;13.68;;;;;;;7.12;85.50;101027.78;4975945;28;20030;-77
2021/04/05 01:52:52;;;;;;;31.98;13.77;;;;;;;6.79;85.70;100977.34;4981281;28;20180;-76
2021/04/05 01:55:18;;;;;;;34.30;12.93;;;;;;;6.86;84.89;100986.50;4980441;28;20511;-77
2021/04/05 01:57:44;;;;;;;37.40;12.25;;;;;;;7.08;83.73;101002.47;4975786;28;20428;-77
2021/04/05 02:00:19;;;;;;;27.80;11.50;;;;;;;6.95;82.48;100963.69;4981220;28;20035;-77
2021/04/05 02:02:44;;;;;;;23.88;9.93;;;;;;;7.25;81.40;100998.41;4976476;28;20026;-77
2021/04/05 02:05:10;;;;;;;27.67;11.35;;;;;;;7.10;80.50;100969.50;4984794;28;20031;-78
2021/04/05 02:07:37;;;;;;;25.35;10.55;;;;;;;6.70;80.70;100893.22;4990970;28;20030;-77
2021/04/05 02:10:07;;;;;;;25.48;10.73;;;;;;;7.17;80.05;100957.44;4979359;28;21040;-76
2021/04/05 02:12:32;;;;;;;21.75;10.88;;;;;;;7.34;79.90;100981.69;4965730;28;20034;-77
2021/04/05 02:14:58;;;;;;;23.70;9.88;;;;;;;7.00;79.42;100905.75;4977191;28;20037;-78
2021/04/05 02:17:23;;;;;;;29.38;11.45;;;;;;;7.14;79.90;100935.59;4981724;28;20042;-78
2021/04/05 02:19:49;;;;;;;25.52;10.55;;;;;;;7.29;79.62;100944.09;4974335;28;20049;-78
2021/04/05 02:22:15;;;;;;;25.33;11.23;;;;;;;7.34;80.15;100942.72;4978755;28;20035;-79
2021/04/05 02:24:41;;;;;;;25.73;11.20;;;;;;;7.38;79.67;100942.47;4974614;28;20035;-78
2021/04/05 02:27:08;;;;;;;21.30;10.43;;;;;;;7.40;79.86;100935.19;4973470;28;20034;-77
2021/04/05 02:29:34;;;;;;;26.50;11.20;;;;;;;7.39;79.71;100938.84;4976007;28;20038;-77
2021/04/05 02:31:59;;;;;;;23.13;11.30;;;;;;;7.39;79.55;100937.03;4984947;28;20544;-77
2021/04/05 02:34:25;;;;;;;30.48;11.70;;;;;;;7.40;79.35;100933.41;4974130;28;20046;-77
2021/04/05 02:36:50;;;;;;;23.63;10.48;;;;;;;7.26;79.76;100894.75;4975958;28;20026;-77
2021/04/05 02:39:17;;;;;;;30.65;11.75;;;;;;;7.19;79.16;100886.47;4976378;28;20030;-77
2021/04/05 02:41:44;;;;;;;20.52;10.15;;;;;;;7.20;79.26;100861.59;4967071;28;20115;-77
2021/04/05 02:44:11;;;;;;;21.20;10.68;;;;;;;7.56;79.38;100916.16;4968977;28;20098;-77
2021/04/05 02:46:39;;;;;;;25.67;11.43;;;;;;;7.53;78.55;100882.75;4972203;28;20027;-76
2021/04/05 02:49:10;;;;;;;22.70;11.07;;;;;;;7.61;78.66;100904.19;4970583;28;20061;-77
2021/04/05 02:51:43;;;;;;;26.65;10.50;;;;;;;6.80;78.49;100763.34;4962816;28;20094;-77
2021/04/05 02:54:10;;;;;;;21.70;11.15;;;;;;;7.66;78.13;100899.31;4980108;28;20030;-82
2021/04/05 02:56:38;;;;;;;21.37;11.10;;;;;;;7.66;78.19;100885.19;4979549;28;20034;-77
2021/04/05 02:59:04;;;;;;;24.27;11.20;;;;;;;7.13;78.42;100790.59;4976500;28;21026;-77
2021/04/05 03:01:31;;;;;;;24.90;11.25;;;;;;;7.71;78.32;100880.31;4972655;28;20050;-77
2021/04/05 03:03:59;;;;;;;26.42;11.68;;;;;;;7.76;78.05;100883.41;4975648;28;20599;-77
2021/04/05 03:06:27;;;;;;;24.67;11.50;;;;;;;7.71;77.59;100855.56;4982233;28;20066;-77
2021/04/05 03:08:53;;;;;;;23.52;12.38;;;;;;;7.76;78.05;100856.84;4984788;28;20026;-77
2021/04/05 03:11:23;;;;;;;20.83;10.45;;;;;;;7.77;77.75;100852.38;4975016;28;20031;-77
2021/04/05 03:13:50;;;;;;;27.30;11.55;;;;;;;7.71;77.74;100856.41;4961488;28;20022;-77
2021/04/05 03:16:24;;;;;;;24.83;11.43;;;;;;;7.68;77.92;100851.38;4971578;28;20097;-78
2021/04/05 03:18:52;;;;;;;23.70;11.25;;;;;;;7.53;78.56;100820.81;4982030;28;20030;-77
2021/04/05 03:21:20;;;;;;;25.25;11.90;;;;;;;7.68;78.43;100837.22;4973501;28;20030;-77
2021/04/05 03:23:46;;;;;;;24.83;11.77;;;;;;;7.71;78.33;100836.97;4984371;28;20085;-77
2021/04/05 03:26:12;;;;;;;21.92;11.52;;;;;;;7.69;78.20;100828.28;4979698;28;20061;-77
2021/04/05 03:28:38;;;;;;;25.00;11.90;;;;;;;7.66;79.04;100832.06;4983427;28;20028;-77
2021/04/05 03:31:19;;;;;;;26.38;11.90;;;;;;;7.46;78.53;100768.28;4976477;28;20049;-78
2021/04/05 03:33:55;;;;;;;25.33;11.52;;;;;;;7.65;78.77;100809.13;4984185;28;20034;-77
2021/04/05 03:36:22;;;;;;;23.90;11.68;;;;;;;7.74;78.65;100815.44;4981882;28;20038;-77
2021/04/05 03:38:48;;;;;;;22.13;11.32;;;;;;;7.74;78.77;100804.81;4984397;28;20469;-77
2021/04/05 03:41:30;;;;;;;23.45;12.00;;;;;;;7.75;78.52;100801.19;4981538;28;20097;-77
2021/04/05 03:44:03;;;;;;;26.73;11.68;;;;;;;7.74;78.87;100804.81;4980645;28;20030;-77
2021/04/05 03:46:38;;;;;;;22.35;10.95;;;;;;;7.79;78.59;100797.31;4983113;28;20493;-76
2021/04/05 03:49:15;;;;;;;25.20;11.07;;;;;;;7.78;78.61;100795.63;4981409;28;20035;-77
2021/04/05 03:51:47;;;;;;;25.52;11.15;;;;;;;7.83;78.57;100796.03;4981152;28;20034;-76
2021/04/05 03:54:15;;;;;;;22.45;10.80;;;;;;;7.87;78.26;100791.31;4985009;28;20451;-76
2021/04/05 03:56:47;;;;;;;23.52;11.02;;;;;;;7.89;78.07;100782.22;4977207;28;20493;-76
2021/04/05 03:59:30;;;;;;;26.20;11.52;;;;;;;7.81;78.20;100768.75;4979495;28;20049;-76
2021/04/05 04:02:05;;;;;;;24.67;11.93;;;;;;;7.94;78.28;100789.78;4961745;28;20057;-76
2021/04/05 04:04:50;;;;;;;26.52;12.00;;;;;;;7.79;78.69;100760.09;4977981;28;20037;-76
2021/04/05 04:07:40;;;;;;;26.77;11.25;;;;;;;7.96;79.31;100782.50;4984008;28;20485;-76
2021/04/05 04:10:10;;;;;;;24.52;11.60;;;;;;;7.92;79.63;100765.16;4981242;28;20056;-78
2021/04/05 04:12:38;;;;;;;22.73;11.77;;;;;;;7.91;80.11;100766.97;4979050;28;20037;-77
2021/04/05 04:15:06;;;;;;;23.45;12.25;;;;;;;7.75;79.90;100732.13;4976543;28;20133;-77
2021/04/05 04:17:34;;;;;;;22.25;12.07;;;;;;;7.62;80.80;100704.00;4980827;28;20500;-77
2021/04/05 04:20:05;;;;;;;31.38;12.90;;;;;;;7.88;80.74;100747.78;4979543;28;20023;-77
2021/04/05 04:22:34;;;;;;;23.23;12.15;;;;;;;7.80;80.96;100728.06;4978556;28;20026;-78
2021/04/05 04:25:00;;;;;;;25.17;12.43;;;;;;;7.73;81.29;100715.47;4981160;28;20042;-77
2021/04/05 04:27:25;;;;;;;27.17;12.05;;;;;;;7.91;81.73;100726.25;4982692;28;20077;-77
2021/04/05 04:29:56;;;;;;;28.30;12.60;;;;;;;7.88;82.39;100729.19;4980650;28;20160;-78
2021/04/05 04:32:22;;;;;;;31.45;12.93;;;;;;;7.84;82.44;100719.84;4978887;28;20058;-78
2021/04/05 04:34:48;;;;;;;33.90;12.57;;;;;;;7.82;82.09;100712.00;4978382;28;20509;-77
2021/04/05 04:37:15;;;;;;;30.40;12.93;;;;;;;7.83;82.04;100708.34;4971290;28;20114;-77
2021/04/05 04:39:42;;;;;;;24.40;12.25;;;;;;;7.76;81.81;100697.44;4965935;28;20026;-77
2021/04/05 04:42:09;;;;;;;24.95;12.57;;;;;;;7.77;81.94;100680.53;4966660;28;20026;-77
2021/04/05 04:44:34;;;;;;;23.30;11.50;;;;;;;7.81;81.31;100684.59;4977665;28;20030;-77
2021/04/05 04:47:00;;;;;;;22.33;11.20;;;;;;;7.59;80.94;100642.38;4978505;28;20045;-78
2021/04/05 04:49:26;;;;;;;24.67;11.65;;;;;;;7.85;80.68;100686.97;4966345;28;20045;-77
2021/04/05 04:51:52;;;;;;;26.67;11.60;;;;;;;7.80;81.02;100682.09;4970484;28;20040;-77
2021/04/05 04:54:17;;;;;;;27.83;10.65;;;;;;;7.79;80.96;100685.72;4971739;28;20034;-78
2021/04/05 04:56:43;;;;;;;24.98;10.90;;;;;;;7.55;81.24;100647.09;4971608;28;20370;-77
2021/04/05 04:59:10;;;;;;;26.17;10.90;;;;;;;7.72;80.78;100669.50;4973244;28;20042;-77
2021/04/05 05:01:37;;;;;;;29.85;12.18;;;;;;;7.79;81.17;100693.69;4973957;28;20027;-78
2021/04/05 05:04:08;;;;;;;20.00;7.88;;;;;;;7.61;80.03;100728.88;4969835;28;20462;-78
2021/04/05 05:06:35;;;;;;;9.73;2.20;;;;;;;7.20;77.62;100675.81;4972637;28;20825;-77
2021/04/05 05:09:02;;;;;;;7.88;1.83;;;;;;;7.51;78.15;100757.25;4985076;28;20046;-77
2021/04/05 05:11:28;;;;;;;8.73;1.90;;;;;;;7.17;79.34;100761.03;4977112;28;20626;-75
2021/04/05 05:13:56;;;;;;;6.35;1.70;;;;;;;6.99;80.30;100750.16;4971401;28;20035;-76
2021/04/05 05:16:23;;;;;;;8.60;2.28;;;;;;;6.71;82.06;100749.03;4984140;28;20038;-76
2021/04/05 05:18:51;;;;;;;13.13;2.65;;;;;;;6.50;82.08;100749.03;4976599;28;20053;-76
2021/04/05 05:21:25;;;;;;;8.90;2.40;;;;;;;6.35;82.84;100756.47;4975212;28;20118;-76
2021/04/05 05:23:58;;;;;;;10.65;2.88;;;;;;;6.00;83.48;100739.03;4968798;28;20026;-76
2021/04/05 05:26:26;;;;;;;16.50;3.50;;;;;;;5.90;83.00;100733.63;4984904;28;20352;-76
2021/04/05 05:28:54;;;;;;;12.43;3.00;;;;;;;6.03;82.15;100770.56;4975377;28;20082;-76
2021/04/05 05:31:20;;;;;;;15.10;2.97;;;;;;;5.97;81.32;100777.19;4974880;28;20039;-76
2021/04/05 05:33:46;;;;;;;11.90;2.50;;;;;;;5.91;81.29;100783.81;4982029;28;20038;-76
2021/04/05 05:36:12;;;;;;;10.32;2.58;;;;;;;5.72;80.22;100763.28;4969928;28;20042;-75
2021/04/05 05:38:38;;;;;;;15.13;2.72;;;;;;;5.81;81.25;100782.88;4965237;28;22993;-76
2021/04/05 05:41:15;;;;;;;12.18;2.67;;;;;;;5.80;80.98;100791.78;4965342;28;20583;-76
2021/04/05 05:43:55;;;;;;;16.27;2.35;;;;;;;5.74;80.88;100787.84;4965666;28;20034;-76
2021/04/05 05:46:29;;;;;;;14.80;2.60;;;;;;;5.72;81.42;100795.03;4966918;28;20089;-77
2021/04/05 05:49:13;;;;;;;16.20;2.70;;;;;;;5.74;81.31;100803.72;4972896;28;20042;-76
2021/04/05 05:51:57;;;;;;;17.40;3.00;;;;;;;5.74;81.58;100800.22;4974789;28;20027;-76
2021/04/05 05:54:36;;;;;;;8.27;2.20;;;;;;;5.30;80.83;100721.56;4997528;28;20034;-76
2021/04/05 05:57:30;;;;;;;22.02;3.88;;;;;;;5.75;80.78;100808.06;4996167;28;20375;-75
2021/04/05 06:00:14;;;;;;;17.08;3.03;;;;;;;5.72;80.40;100808.28;4980946;28;20434;-76
2021/04/05 06:03:15;;;;;;;21.33;3.17;;;;;;;5.46;80.78;100773.28;4980301;28;20031;-75
2021/04/05 06:06:01;;;;;;;17.30;2.83;;;;;;;5.58;81.33;100804.06;4994814;28;20454;-76
2021/04/05 06:08:46;;;;;;;13.93;2.90;;;;;;;5.65;81.63;100804.44;4995168;28;20027;-76
2021/04/05 06:11:47;;;;;;;21.02;3.00;;;;;;;5.60;82.05;100815.38;4967640;28;20026;-76
2021/04/05 06:14:32;;;;;;;22.08;3.42;;;;;;;5.57;83.02;100818.28;4985696;28;20053;-76
2021/04/05 06:17:24;;;;;;;13.63;2.40;;;;;;;5.55;82.85;100814.94;4980917;28;20034;-77
2021/04/05 06:19:52;;;;;;;17.27;3.20;;;;;;;5.36;82.68;100811.06;4980681;28;20027;-76
2021/04/05 06:22:43;;;;;;;13.05;2.10;;;;;;;5.28;83.62;100810.84;4977756;28;20018;-78
2021/04/05 06:25:25;;;;;;;15.57;3.15;;;;;;;5.36;83.20;100834.88;4966563;28;20080;-76
2021/04/05 06:28:09;;;;;;;18.10;2.58;;;;;;;5.32;84.13;100848.47;4959416;28;20110;-76
2021/04/05 06:31:12;;;;;;;12.95;2.33;;;;;;;5.25;82.70;100856.06;4975817;28;20196;-77
2021/04/05 06:33:45;;;;;;;15.50;2.55;;;;;;;5.15;83.47;100861.19;4989566;28;20123;-77
2021/04/05 06:36:33;;;;;;;10.00;1.83;;;;;;;5.03;85.11;100870.06;4978738;28;20034;-77
2021/04/05 06:39:16;;;;;;;15.05;1.40;;;;;;;4.81;82.74;100877.00;4976004;28;20034;-75
2021/04/05 06:41:53;;;;;;;12.57;1.95;;;;;;;4.70;82.17;100891.00;4976787;28;20030;-76
2021/04/05 06:44:40;;;;;;;10.23;1.70;;;;;;;4.48;83.58;100893.53;4972429;28;20034;-76
2021/04/05 06:47:27;;;;;;;13.77;2.05;;;;;;;4.44;85.29;100901.69;4981142;28;20030;-76
2021/04/05 06:49:55;;;;;;;8.95;1.50;;;;;;;4.35;83.21;100904.16;4982552;28;20022;-76
2021/04/05 06:52:42;;;;;;;14.02;1.90;;;;;;;4.09;82.42;100909.50;4981462;28;20037;-76
2021/04/05 06:55:13;;;;;;;13.68;2.13;;;;;;;4.05;82.54;100934.44;4982399;28;20101;-79
2021/04/05 06:57:53;;;;;;;19.20;2.60;;;;;;;4.02;82.72;100929.38;4983863;28;20134;-76
2021/04/05 07:00:22;;;;;;;18.15;2.38;;;;;;;4.06;82.79;100922.94;4978812;28;20061;-77
2021/04/05 07:02:56;;;;;;;20.48;3.67;;;;;;;4.14;82.63;100923.22;4980167;28;20025;-77
2021/04/05 07:05:35;;;;;;;21.98;3.35;;;;;;;4.16;82.56;100931.88;4996536;28;20031;-77
2021/04/05 07:08:26;;;;;;;26.85;4.57;;;;;;;4.17;83.17;100944.13;4974860;28;20038;-77
2021/04/05 07:11:19;;;;;;;23.95;4.30;;;;;;;4.20;82.75;100946.56;4991711;28;20092;-77
2021/04/05 07:14:04;;;;;;;20.65;3.22;;;;;;;4.13;82.66;100948.78;4993688;28;20058;-77
2021/04/05 07:16:39;;;;;;;29.75;3.92;;;;;;;4.19;83.26;100958.09;4976042;28;20031;-77
2021/04/05 07:19:19;;;;;;;28.63;4.35;;;;;;;4.18;79.86;100966.13;4973305;28;20030;-76
2021/04/05 07:22:22;;;;;;;23.63;3.60;;;;;;;4.05;79.57;100971.41;4985979;28;20034;-76
2021/04/05 07:25:00;;;;;;;27.45;4.60;;;;;;;3.94;79.71;100980.06;4978855;28;20125;-76
2021/04/05 07:27:37;;;;;;;28.67;4.47;;;;;;;3.91;78.04;100975.88;4986836;28;20054;-76
2021/04/05 07:30:10;;;;;;;25.95;4.05;;;;;;;3.92;78.63;100997.84;4978232;28;20378;-76
2021/04/05 07:32:55;;;;;;;29.40;4.30;;;;;;;3.83;78.68;100978.19;4979114;28;20084;-75
2021/04/05 07:35:32;;;;;;;24.85;3.78;;;;;;;3.98;79.12;100984.19;4970214;28;20027;-76
2021/04/05 07:38:38;;;;;;;22.73;3.38;;;;;;;3.92;76.13;100995.22;4974452;28;20733;-75
2021/04/05 07:41:09;;;;;;;22.65;3.40;;;;;;;3.81;77.06;100964.25;4987223;28;20050;-76
2021/04/05 07:43:53;;;;;;;24.98;3.85;;;;;;;3.98;76.25;100998.28;4969777;28;20030;-76
2021/04/05 07:46:29;;;;;;;14.85;2.88;;;;;;;4.11;75.52;100992.97;4974436;28;20138;-76
2021/04/05 07:49:14;;;;;;;25.73;4.03;;;;;;;4.00;76.04;100979.66;4975391;28;20134;-76
2021/04/05 07:51:56;;;;;;;18.83;3.20;;;;;;;3.97;74.85;100956.97;4968986;28;20085;-76
2021/04/05 07:54:27;;;;;;;18.58;2.95;;;;;;;4.28;72.96;100997.03;4974815;28;20427;-76
2021/04/05 07:57:16;;;;;;;21.02;3.20;;;;;;;4.42;70.84;100992.59;4989121;28;20041;-75
2021/04/05 08:00:23;;;;;;;19.85;3.15;;;;;;;4.52;70.13;100996.28;4966104;28;20512;-76
2021/04/05 08:03:24;;;;;;;17.83;2.80;;;;;;;4.57;68.25;101006.50;4973391;28;20374;-76
2021/04/05 08:05:57;;;;;;;21.17;3.55;;;;;;;4.58;68.88;101016.13;4965250;28;20041;-75
2021/04/05 08:08:39;;;;;;;24.02;4.18;;;;;;;4.45;70.61;101021.44;4967109;28;20089;-76
2021/04/05 08:11:16;;;;;;;15.77;2.45;;;;;;;4.43;67.72;101032.13;4970066;28;20388;-76
2021/04/05 08:13:58;;;;;;;13.73;2.60;;;;;;;4.39;67.97;101032.47;4972805;28;20350;-75
2021/04/05 08:16:36;;;;;;;6.78;1.75;;;;;;;4.43;67.48;101013.63;4972877;28;20034;-75
2021/04/05 08:19:35;;;;;;;5.93;1.48;;;;;;;4.60;64.05;101019.53;4987746;28;20038;-75
2021/04/05 08:22:07;;;;;;;9.57;1.70;;;;;;;4.72;63.66;101026.56;4968785;28;20053;-75
2021/04/05 08:24:45;;;;;;;11.20;2.22;;;;;;;4.67;62.37;100961.75;4975742;28;20385;-75
2021/04/05 08:27:22;;;;;;;11.07;1.75;;;;;;;5.30;60.02;101025.06;4981210;28;20458;-76
2021/04/05 08:30:12;;;;;;;13.63;1.90;;;;;;;5.82;59.35;101031.69;4981275;28;20109;-76
2021/04/05 08:32:51;;;;;;;11.43;2.10;;;;;;;6.09;57.77;101042.97;4987467;28;20121;-75
2021/04/05 08:35:36;;;;;;;14.23;2.58;;;;;;;6.00;60.20;101059.56;4975654;28;20034;-75
2021/04/05 08:38:23;;;;;;;12.32;2.05;;;;;;;5.66;66.47;101071.75;4973961;28;20563;-76
2021/04/05 08:41:23;;;;;;;10.57;2.03;;;;;;;5.30;68.17;101080.63;4973413;28;20027;-75
2021/04/05 08:44:16;;;;;;;6.72;1.50;;;;;;;5.02;69.04;101087.91;4973706;28;20038;-75
2021/04/05 08:46:44;;;;;;;5.63;1.17;;;;;;;4.93;68.07;101083.31;4974622;28;20033;-75
2021/04/05 08:49:16;;;;;;;3.88;1.30;;;;;;;4.70;66.67;101051.41;4972316;28;20022;-75
2021/04/05 08:51:44;;;;;;;5.85;1.40;;;;;;;5.00;64.86;101100.41;4975959;28;20127;-74
2021/04/05 08:54:13;;;;;;;9.50;1.30;;;;;;;5.02;65.67;101106.44;4990215;28;20034;-75
2021/04/05 08:56:44;;;;;;;7.40;1.42;;;;;;;4.92;67.01;101132.69;4970838;28;20041;-75
2021/04/05 08:59:23;;;;;;;11.00;1.95;;;;;;;4.70;69.21;101131.59;4969902;28;20074;-74
2021/04/05 09:01:59;;;;;;;6.28;1.27;;;;;;;4.53;71.00;101143.34;4967418;28;20035;-74
2021/04/05 09:04:27;;;;;;;7.90;1.50;;;;;;;4.49;72.00;101139.22;4984137;28;20029;-74
2021/04/05 09:07:08;;;;;;;;;;;;;;;4.51;73.14;101132.03;4977712;28;20030;-74
2021/04/05 09:09:35;;;;;;;11.60;1.50;;;;;;;4.36;73.35;101104.84;4973227;28;19936;-75
2021/04/05 09:12:03;;;;;;;12.65;1.92;;;;;;;4.62;73.13;101111.91;4975337;28;20034;-74
2021/04/05 09:14:38;;;;;;;8.15;1.83;;;;;;;4.70;72.00;101102.50;4975388;28;20118;-75
2021/04/05 09:17:12;;;;;;;9.23;1.92;;;;;;;4.97;71.30;101137.66;4976822;28;20085;-74
2021/04/05 09:19:44;;;;;;;11.73;2.83;;;;;;;5.20;69.67;101138.66;4975980;28;20034;-75
2021/04/05 09:22:17;;;;;;;8.15;1.70;;;;;;;5.30;68.11;101138.84;4971794;28;20038;-75
2021/04/05 09:25:20;;;;;;;12.93;2.30;;;;;;;5.43;65.27;101137.00;4976472;28;20026;-75
2021/04/05 09:28:23;;;;;;;16.50;2.50;;;;;;;5.60;57.18;101151.63;4976350;28;20349;-74
2021/04/05 09:31:06;;;;;;;12.23;2.15;;;;;;;5.87;56.55;101139.09;4984560;28;20029;-74
2021/04/05 09:33:50;;;;;;;9.57;2.58;;;;;;;6.03;55.77;101142.31;4979113;28;20030;-75
2021/04/05 09:36:39;;;;;;;11.57;2.17;;;;;;;6.18;53.94;101131.50;4972131;28;20046;-74
2021/04/05 09:39:33;;;;;;;13.43;2.72;;;;;;;6.37;54.28;101149.50;4984348;28;20040;-74
2021/04/05 09:42:34;;;;;;;13.30;2.60;;;;;;;6.42;54.41;101148.19;4973209;28;20045;-74
2021/04/05 09:45:15;;;;;;;10.60;2.38;;;;;;;6.52;50.99;101147.47;4966989;28;20058;-74
2021/04/05 09:48:02;;;;;;;13.88;2.50;;;;;;;6.57;50.00;101154.09;4985390;28;20038;-75
2021/04/05 09:51:11;;;;;;;13.23;2.70;;;;;;;6.48;52.08;101161.91;4967430;28;20069;-75
2021/04/05 09:54:01;;;;;;;12.20;2.63;;;;;;;6.19;49.46;101164.97;4946577;28;20058;-74
2021/04/05 09:56:33;;;;;;;12.95;2.90;;;;;;;5.54;49.37;101087.69;4965221;28;20026;-74
2021/04/05 09:59:10;;;;;;;13.07;3.28;;;;;;;5.84;53.92;101179.88;4968324;28;20188;-74
2021/04/05 10:01:37;;;;;;;16.05;3.50;;;;;;;5.57;57.16;101165.09;4970933;28;20052;-75
2021/04/05 10:04:14;;;;;;;17.27;3.25;;;;;;;5.64;58.75;101163.69;4971828;28;20045;-74
2021/04/05 10:06:41;;;;;;;13.70;2.55;;;;;;;6.02;56.65;101196.28;4953692;28;20232;-74
2021/04/05 10:09:08;;;;;;;10.13;2.45;;;;;;;5.80;56.02;101183.75;4975330;28;20057;-74
2021/04/05 10:11:43;;;;;;;12.60;2.50;;;;;;;6.25;56.35;101204.28;4967533;28;20482;-74
2021/04/05 10:14:10;;;;;;;11.95;2.45;;;;;;;6.58;52.92;101203.50;4971861;28;20351;-81
2021/04/05 10:16:37;;;;;;;17.38;3.20;;;;;;;6.34;53.12;101137.31;4973415;28;20085;-75
2021/04/05 10:19:09;;;;;;;13.15;3.20;;;;;;;7.03;53.74;101196.56;4973487;28;20038;-74
2021/04/05 10:21:41;;;;;;;15.90;2.50;;;;;;;7.27;50.15;101198.22;4973420;28;20058;-73
2021/04/05 10:24:08;;;;;;;10.00;2.67;;;;;;;6.38;45.28;101021.31;4972786;28;20030;-75
2021/04/05 10:26:35;;;;;;;11.38;2.25;;;;;;;6.83;43.16;101129.16;4978078;28;20030;-75
2021/04/05 10:29:11;;;;;;;9.37;2.30;;;;;;;6.48;43.83;101117.69;4995349;28;20026;-75
2021/04/05 10:31:38;;;;;;;8.00;2.20;;;;;;;6.71;43.14;101174.25;4970322;28;20030;-75
2021/04/05 10:34:07;;;;;;;11.18;2.40;;;;;;;6.57;43.61;101212.44;4975202;28;20089;-74
2021/04/05 10:37:02;;;;;;;17.90;3.40;;;;;;;6.59;47.86;101196.41;4971559;28;22539;-74
2021/04/05 10:39:28;;;;;;;9.20;1.83;;;;;;;6.56;46.83;101213.41;4969935;28;20046;-74
2021/04/05 10:42:07;;;;;;;6.07;1.30;;;;;;;6.43;46.53;101202.03;4971926;28;20380;-76
2021/04/05 10:44:39;;;;;;;4.05;1.00;;;;;;;5.94;45.60;101191.50;4975454;28;20034;-73
2021/04/05 10:47:11;;;;;;;5.18;1.20;;;;;;;5.94;45.52;101228.59;4976247;28;20037;-75
2021/04/05 10:49:39;;;;;;;4.95;1.23;;;;;;;5.73;45.02;101233.66;4971288;28;20404;-76
2021/04/05 10:52:15;;;;;;;6.28;1.52;;;;;;;5.73;46.50;101241.63;4988931;28;20067;-75
2021/04/05 10:54:46;;;;;;;10.27;1.83;;;;;;;5.77;48.19;101252.81;4970522;28;20042;-76
2021/04/05 10:57:15;;;;;;;8.82;2.00;;;;;;;5.81;47.54;101243.69;4972050;28;20030;-76
2021/04/05 11:00:05;;;;;;;7.55;1.85;;;;;;;5.96;46.49;101260.25;4978151;28;20140;-76
2021/04/05 11:02:36;;;;;;;8.77;1.88;;;;;;;5.93;46.63;101258.69;4963538;28;20038;-76
2021/04/05 11:05:09;;;;;;;8.07;1.75;;;;;;;6.06;45.78;101253.34;4972915;28;20078;-74
2021/04/05 11:07:36;;;;;;;8.70;1.45;;;;;;;6.10;43.30;101257.47;4975073;28;20034;-77
2021/04/05 11:10:06;;;;;;;11.20;1.63;;;;;;;6.18;45.09;101250.75;4974302;28;20540;-76
2021/04/05 11:12:41;;;;;;;7.85;1.70;;;;;;;6.01;43.99;101252.88;4970744;28;20531;-77
2021/04/05 11:15:10;;;;;;;10.65;1.80;;;;;;;6.00;43.90;101253.81;4977912;28;20042;-76
2021/04/05 11:17:41;;;;;;;9.35;2.30;;;;;;;5.93;44.30;101263.13;4976434;28;20103;-76
2021/04/05 11:20:09;;;;;;;8.73;1.45;;;;;;;5.24;45.63;101121.59;4976858;28;20124;-76
2021/04/05 11:22:38;;;;;;;10.35;1.60;;;;;;;6.19;43.30;101247.13;4980498;28;20061;-75
2021/04/05 11:25:10;;;;;;;;;;;;;;;6.28;44.91;101252.59;4977566;28;20107;-75
2021/04/05 11:27:40;;;;;;;15.60;2.40;;;;;;;6.70;47.20;101256.56;4976927;28;19914;-74
2021/04/05 11:30:07;;;;;;;10.68;2.00;;;;;;;6.67;47.96;101262.97;4980460;28;20496;-75
2021/04/05 11:32:36;;;;;;;13.73;2.50;;;;;;;6.55;48.88;101275.34;4975091;28;20031;-76
2021/04/05 11:35:05;;;;;;;12.95;2.97;;;;;;;6.07;48.01;101270.94;4975639;28;20134;-76
2021/04/05 11:37:36;;;;;;;7.40;1.73;;;;;;;5.66;52.44;101293.31;4974223;28;20497;-76
2021/04/05 11:40:13;;;;;;;11.13;1.50;;;;;;;5.36;53.99;101292.75;4975292;28;20046;-77
2021/04/05 11:42:46;;;;;;;10.48;2.10;;;;;;;5.16;55.46;101254.44;4973670;28;20026;-77
2021/04/05 11:45:16;;;;;;;8.05;1.77;;;;;;;5.39;53.16;101283.72;4973846;28;20034;-77
2021/04/05 11:47:47;;;;;;;12.13;2.03;;;;;;;5.43;51.13;101219.03;4978435;28;20031;-77
2021/04/05 11:50:25;;;;;;;8.90;1.58;;;;;;;6.19;48.49;101290.41;4980969;28;20037;-77
2021/04/05 11:52:56;;;;;;;10.23;2.08;;;;;;;6.55;45.68;101279.81;4986968;28;20049;-77
2021/04/05 11:55:28;;;;;;;6.38;1.45;;;;;;;6.73;43.82;101293.47;4986215;28;20025;-77